createdAt,value
2019-05-07T00:00:49.591Z,99327.94
2019-05-07T00:03:17.982Z,99324.53
2019-05-07T00:05:46.393Z,99321.53
2019-05-07T00:08:14.819Z,99318.13
2019-05-07T00:10:43.233Z,99321.57
2019-05-07T00:13:12.883Z,99321.56
2019-05-07T00:15:42.030Z,99316.86
2019-05-07T00:18:12.579Z,99314.72
2019-05-07T00:20:42.319Z,99317.28
2019-05-07T00:23:12.383Z,99318.59
2019-05-07T00:25:42.199Z,99310.00
2019-05-07T00:28:12.195Z,99311.30
2019-05-07T00:30:42.543Z,99303.13
2019-05-07T00:33:13.104Z,99302.73
2019-05-07T00:35:48.817Z,99301.00
2019-05-07T00:38:19.573Z,99305.73
2019-05-07T00:40:55.240Z,99315.17
2019-05-07T00:43:25.315Z,99310.03
2019-05-07T00:45:56.982Z,99307.45
2019-05-07T00:48:25.645Z,99308.75
2019-05-07T00:50:55.720Z,99307.92
2019-05-07T00:53:24.241Z,99310.49
2019-05-07T00:55:52.790Z,99307.88
2019-05-07T00:58:26.342Z,99304.88
2019-05-07T01:00:53.115Z,99306.59
2019-05-07T01:03:22.313Z,99307.03
2019-05-07T01:05:52.760Z,99304.88
2019-05-07T01:08:22.627Z,99300.13
2019-05-07T01:10:52.870Z,99306.14
2019-05-07T01:13:23.387Z,99306.56
2019-05-07T01:15:53.152Z,99310.86
2019-05-07T01:18:23.298Z,99308.25
2019-05-07T01:20:53.255Z,99303.97
2019-05-07T01:23:22.933Z,99308.66
2019-05-07T01:25:52.602Z,99303.07
2019-05-07T01:28:22.275Z,99304.75
2019-05-07T01:30:52.842Z,99303.50
2019-05-07T01:33:37.997Z,99299.19
2019-05-07T01:36:08.062Z,99299.19
2019-05-07T01:38:36.535Z,99295.33
2019-05-07T01:41:05.050Z,99292.76
2019-05-07T01:43:33.480Z,99293.64
2019-05-07T01:46:03.194Z,99292.74
2019-05-07T01:48:32.374Z,99296.62
2019-05-07T01:51:03.171Z,99295.75
2019-05-07T01:53:32.316Z,99291.91
2019-05-07T01:56:03.054Z,99293.20
2019-05-07T01:58:33.065Z,99284.70
2019-05-07T02:01:02.843Z,99283.39
2019-05-07T02:03:52.775Z,99288.55
2019-05-07T02:06:22.971Z,99283.41
2019-05-07T02:08:53.169Z,99284.72
2019-05-07T02:11:23.382Z,99280.02
2019-05-07T02:13:52.945Z,99279.97
2019-05-07T02:16:21.898Z,99284.25
2019-05-07T02:18:52.661Z,99283.83
2019-05-07T02:21:22.092Z,99281.23
2019-05-07T02:23:52.353Z,99283.36
2019-05-07T02:26:22.540Z,99285.52
2019-05-07T02:28:51.876Z,99279.94
2019-05-07T02:31:23.112Z,99284.66
2019-05-07T02:33:53.839Z,99283.41
2019-05-07T02:36:23.692Z,99284.28
2019-05-07T02:38:55.484Z,99282.55
2019-05-07T02:41:25.534Z,99276.98
2019-05-07T02:43:54.052Z,99283.45
2019-05-07T02:46:36.272Z,99285.20
2019-05-07T02:49:04.600Z,99290.34
2019-05-07T02:51:37.414Z,99284.77
2019-05-07T02:54:07.489Z,99281.75
2019-05-07T02:56:35.976Z,99287.36
2019-05-07T02:59:04.487Z,99290.76
2019-05-07T03:01:33.769Z,99286.45
2019-05-07T03:04:03.665Z,99285.62
2019-05-07T03:06:33.970Z,99287.77
2019-05-07T03:09:03.303Z,99285.62
2019-05-07T03:11:34.045Z,99289.03
2019-05-07T03:14:03.252Z,99280.89
2019-05-07T03:16:39.820Z,99286.90
2019-05-07T03:19:04.012Z,99279.63
2019-05-07T03:21:53.452Z,99281.75
2019-05-07T03:24:23.073Z,99283.91
2019-05-07T03:26:53.605Z,99278.78
2019-05-07T03:29:24.132Z,99278.75
2019-05-07T03:31:56.395Z,99276.60
2019-05-07T03:34:46.645Z,99282.20
2019-05-07T03:37:15.620Z,99276.17
2019-05-07T03:39:44.122Z,99277.06
2019-05-07T03:42:13.151Z,99278.34
2019-05-07T03:44:46.283Z,99275.78
2019-05-07T03:47:28.229Z,99276.61
2019-05-07T03:49:56.731Z,99276.63
2019-05-07T03:52:25.146Z,99274.90
2019-05-07T03:54:54.260Z,99273.61
2019-05-07T03:57:23.682Z,99272.30
2019-05-07T03:59:53.247Z,99272.30
2019-05-07T04:02:23.876Z,99271.89
2019-05-07T04:04:52.921Z,99271.43
2019-05-07T04:07:23.267Z,99270.56
2019-05-07T04:09:53.499Z,99263.25
2019-05-07T04:12:23.912Z,99271.84
2019-05-07T04:14:53.406Z,99267.50
2019-05-07T04:17:26.474Z,99266.66
2019-05-07T04:19:53.257Z,99269.22
2019-05-07T04:22:26.444Z,99265.39
2019-05-07T04:24:53.802Z,99264.56
2019-05-07T04:27:26.935Z,99271.02
2019-05-07T04:29:55.325Z,99265.45
2019-05-07T04:32:25.417Z,99269.31
2019-05-07T04:34:58.277Z,99267.55
2019-05-07T04:37:26.700Z,99270.98
2019-05-07T04:39:55.129Z,99274.39
2019-05-07T04:42:24.618Z,99267.55
2019-05-07T04:44:54.058Z,99268.84
2019-05-07T04:47:34.466Z,99273.16
2019-05-07T04:49:53.524Z,99271.88
2019-05-07T04:52:23.973Z,99264.58
2019-05-07T04:54:52.868Z,99267.11
2019-05-07T04:57:25.870Z,99262.84
2019-05-07T04:59:55.982Z,99262.41
2019-05-07T05:02:27.091Z,99266.67
2019-05-07T05:04:55.535Z,99273.50
2019-05-07T05:07:24.037Z,99267.88
2019-05-07T05:09:53.245Z,99265.40
2019-05-07T05:12:23.060Z,99261.98
2019-05-07T05:14:52.438Z,99264.55
2019-05-07T05:17:22.486Z,99271.84
2019-05-07T05:19:52.524Z,99273.53
2019-05-07T05:22:22.701Z,99272.42
2019-05-07T05:25:09.029Z,99280.28
2019-05-07T05:27:37.689Z,99281.28
2019-05-07T05:30:09.498Z,99277.91
2019-05-07T05:32:37.926Z,99274.77
2019-05-07T05:35:12.513Z,99273.64
2019-05-07T05:37:42.782Z,99274.00
2019-05-07T05:40:12.334Z,99272.76
2019-05-07T05:42:43.087Z,99280.91
2019-05-07T05:45:29.732Z,99279.64
2019-05-07T05:48:04.563Z,99288.23
2019-05-07T05:50:29.991Z,99292.75
2019-05-07T05:53:05.940Z,99284.06
2019-05-07T05:55:35.853Z,99283.06
2019-05-07T05:58:12.295Z,99284.78
2019-05-07T06:00:45.159Z,99279.70
2019-05-07T06:03:32.242Z,99286.08
2019-05-07T06:06:02.431Z,99277.14
2019-05-07T06:08:32.755Z,99287.36
2019-05-07T06:11:02.788Z,99280.95
2019-05-07T06:13:43.981Z,99278.02
2019-05-07T06:16:17.263Z,99282.75
2019-05-07T06:18:50.098Z,99280.30
2019-05-07T06:21:34.102Z,99282.08
2019-05-07T06:24:06.586Z,99282.82
2019-05-07T06:26:35.455Z,99279.66
2019-05-07T06:29:03.866Z,99276.85
2019-05-07T06:31:32.754Z,99278.91
2019-05-07T06:34:01.841Z,99277.95
2019-05-07T06:36:32.889Z,99284.02
2019-05-07T06:39:03.049Z,99281.84
2019-05-07T06:41:49.074Z,99275.66
2019-05-07T06:44:19.122Z,99278.27
2019-05-07T06:46:47.536Z,99279.41
2019-05-07T06:49:15.992Z,99276.50
2019-05-07T06:51:47.586Z,99284.22
2019-05-07T06:54:14.531Z,99276.29
2019-05-07T06:56:43.001Z,99280.56
2019-05-07T06:59:13.164Z,99276.83
2019-05-07T07:02:02.335Z,99275.37
2019-05-07T07:04:44.902Z,99273.38
2019-05-07T07:07:32.299Z,99274.70
2019-05-07T07:10:04.586Z,99272.61
2019-05-07T07:12:33.378Z,99270.43
2019-05-07T07:15:02.745Z,99275.26
2019-05-07T07:17:32.590Z,99267.55
2019-05-07T07:20:02.143Z,99268.91
2019-05-07T07:22:31.979Z,99266.39
2019-05-07T07:25:02.524Z,99260.45
2019-05-07T07:27:32.188Z,99262.74
2019-05-07T07:30:04.750Z,99265.62
2019-05-07T07:32:34.821Z,99257.78
2019-05-07T07:35:03.877Z,99250.09
2019-05-07T07:37:39.638Z,99251.23
2019-05-07T07:40:12.838Z,99252.30
2019-05-07T07:42:42.626Z,99248.38
2019-05-07T07:45:18.519Z,99248.59
2019-05-07T07:47:47.519Z,99244.19
2019-05-07T07:50:16.653Z,99243.39
2019-05-07T07:52:45.203Z,99244.34
2019-05-07T07:55:15.851Z,99248.30
2019-05-07T07:57:48.993Z,99241.19
2019-05-07T08:00:26.165Z,99237.02
2019-05-07T08:02:56.915Z,99235.28
2019-05-07T08:05:25.342Z,99237.80
2019-05-07T08:07:53.808Z,99240.78
2019-05-07T08:10:22.360Z,99250.27
2019-05-07T08:12:52.544Z,99238.34
2019-05-07T08:15:24.506Z,99235.02
2019-05-07T08:17:52.237Z,99237.80
2019-05-07T08:20:22.311Z,99238.87
2019-05-07T08:22:52.614Z,99232.38
2019-05-07T08:25:23.371Z,99230.04
2019-05-07T08:27:52.414Z,99231.34
2019-05-07T08:30:23.638Z,99229.26
2019-05-07T08:33:02.017Z,99228.86
2019-05-07T08:35:34.573Z,99222.20
2019-05-07T08:38:03.025Z,99226.48
2019-05-07T08:40:32.587Z,99227.50
2019-05-07T08:43:03.048Z,99226.92
2019-05-07T08:45:49.510Z,99216.77
2019-05-07T08:48:23.088Z,99209.55
2019-05-07T08:50:52.607Z,99211.36
2019-05-07T08:53:22.485Z,99221.61
2019-05-07T08:55:52.616Z,99205.68
2019-05-07T08:58:22.453Z,99217.16
2019-05-07T09:00:52.281Z,99206.77
2019-05-07T09:03:25.006Z,99204.25
2019-05-07T09:05:52.734Z,99203.97
2019-05-07T09:08:22.049Z,99202.00
2019-05-07T09:10:52.496Z,99200.97
2019-05-07T09:13:22.589Z,99199.03
2019-05-07T09:15:52.863Z,99196.20
2019-05-07T09:18:22.880Z,99198.16
2019-05-07T09:20:52.769Z,99188.19
2019-05-07T09:23:22.365Z,99180.23
2019-05-07T09:25:52.243Z,99185.20
2019-05-07T09:28:22.312Z,99174.16
2019-05-07T09:30:58.633Z,99176.15
2019-05-07T09:33:46.840Z,99169.86
2019-05-07T09:36:16.926Z,99170.93
2019-05-07T09:38:56.098Z,99170.46
2019-05-07T09:41:27.546Z,99169.25
2019-05-07T09:43:57.443Z,99169.03
2019-05-07T09:46:26.385Z,99161.58
2019-05-07T09:48:54.918Z,99158.30
2019-05-07T09:51:23.547Z,99164.77
2019-05-07T09:53:52.431Z,99161.02
2019-05-07T09:56:22.891Z,99160.78
2019-05-07T09:58:52.916Z,99160.27
2019-05-07T10:01:21.241Z,99161.88
2019-05-07T10:03:51.745Z,99160.61
2019-05-07T10:06:19.876Z,99153.16
2019-05-07T10:08:48.284Z,99158.14
2019-05-07T10:11:18.419Z,99148.79
2019-05-07T10:13:52.386Z,99148.48
2019-05-07T10:16:22.565Z,99150.67
2019-05-07T10:18:52.051Z,99144.84
2019-05-07T10:21:22.063Z,99147.09
2019-05-07T10:23:52.185Z,99141.37
2019-05-07T10:26:22.568Z,99139.56
2019-05-07T10:28:52.887Z,99138.17
2019-05-07T10:31:22.348Z,99130.72
2019-05-07T10:33:52.455Z,99134.42
2019-05-07T10:36:22.822Z,99133.03
2019-05-07T10:38:52.021Z,99137.59
2019-05-07T10:41:22.348Z,99136.53
2019-05-07T10:43:51.963Z,99135.06
2019-05-07T10:46:34.359Z,99131.55
2019-05-07T10:49:13.580Z,99128.77
2019-05-07T10:51:42.553Z,99121.61
2019-05-07T10:54:12.622Z,99119.28
2019-05-07T10:56:41.877Z,99114.38
2019-05-07T10:59:12.259Z,99105.36
2019-05-07T11:01:45.163Z,99109.28
2019-05-07T11:04:13.615Z,99099.20
2019-05-07T11:06:42.040Z,99104.09
2019-05-07T11:09:10.630Z,99102.58
2019-05-07T11:11:39.060Z,99099.13
2019-05-07T11:14:07.534Z,99100.81
2019-05-07T11:16:56.564Z,99104.03
2019-05-07T11:19:24.977Z,99098.88
2019-05-07T11:21:53.381Z,99102.92
2019-05-07T11:24:22.604Z,99102.50
2019-05-07T11:26:52.997Z,99092.57
2019-05-07T11:29:22.085Z,99087.93
2019-05-07T11:31:52.412Z,99087.47
2019-05-07T11:34:22.056Z,99093.23
2019-05-07T11:36:52.391Z,99086.11
2019-05-07T11:39:22.666Z,99085.87
2019-05-07T11:41:58.560Z,99079.23
2019-05-07T11:44:28.602Z,99078.55
2019-05-07T11:47:15.257Z,99076.78
2019-05-07T11:50:03.142Z,99064.98
2019-05-07T11:52:38.920Z,99070.02
2019-05-07T11:55:07.692Z,99064.20
2019-05-07T11:57:36.104Z,99065.48
2019-05-07T12:00:08.396Z,99069.92
2019-05-07T12:02:36.825Z,99059.77
2019-05-07T12:05:08.163Z,99064.95
2019-05-07T12:07:36.615Z,99059.23
2019-05-07T12:10:08.157Z,99056.23
2019-05-07T12:12:38.216Z,99049.78
2019-05-07T12:15:06.854Z,99048.20
2019-05-07T12:17:35.295Z,99061.17
2019-05-07T12:20:04.751Z,99057.33
2019-05-07T12:22:48.017Z,99052.52
2019-05-07T12:25:23.614Z,99053.34
2019-05-07T12:27:52.800Z,99044.36
2019-05-07T12:30:28.989Z,99045.36
2019-05-07T12:33:15.196Z,99048.13
2019-05-07T12:35:43.615Z,99041.91
2019-05-07T12:38:12.814Z,99044.76
2019-05-07T12:40:41.929Z,99038.11
2019-05-07T12:43:10.707Z,99038.39
2019-05-07T12:45:39.056Z,99040.75
2019-05-07T12:48:07.863Z,99038.39
2019-05-07T12:50:36.680Z,99032.77
2019-05-07T12:53:07.185Z,99033.98
2019-05-07T12:55:37.251Z,99042.69
2019-05-07T12:58:05.760Z,99032.59
2019-05-07T13:00:52.119Z,99034.14
2019-05-07T13:03:25.434Z,99033.92
2019-05-07T13:05:53.946Z,99027.80
2019-05-07T13:08:23.251Z,99025.48
2019-05-07T13:10:51.944Z,99018.63
2019-05-07T13:13:20.528Z,99010.91
2019-05-07T13:15:48.986Z,99009.29
2019-05-07T13:18:17.404Z,99013.22
2019-05-07T13:20:48.811Z,99011.47
2019-05-07T13:23:16.328Z,99010.03
2019-05-07T13:25:44.764Z,99003.57
2019-05-07T13:28:13.377Z,99003.88
2019-05-07T13:30:43.791Z,99005.66
2019-05-07T13:35:41.982Z,99000.03
2019-05-07T13:38:14.657Z,98995.40
2019-05-07T13:40:47.866Z,98989.63
2019-05-07T13:43:29.574Z,98984.20
2019-05-07T13:45:59.777Z,98984.73
2019-05-07T13:48:28.498Z,98982.02
2019-05-07T13:50:56.979Z,98982.33
2019-05-07T13:53:25.680Z,98986.98
2019-05-07T13:55:54.446Z,98987.71
2019-05-07T13:58:23.115Z,98976.25
2019-05-07T14:00:56.308Z,98981.13
2019-05-07T14:03:24.728Z,98978.34
2019-05-07T14:05:53.229Z,98972.42
2019-05-07T14:08:23.026Z,98969.41
2019-05-07T14:10:52.072Z,98964.31
2019-05-07T14:13:21.958Z,98966.48
2019-05-07T14:15:54.924Z,98962.98
2019-05-07T14:18:25.742Z,98961.45
2019-05-07T14:20:54.646Z,98962.27
2019-05-07T14:23:23.079Z,98956.50
2019-05-07T14:25:52.651Z,98959.94
2019-05-07T14:28:23.523Z,98952.29
2019-05-07T14:30:52.309Z,98953.47
2019-05-07T14:33:38.313Z,98944.78
2019-05-07T14:36:24.541Z,98943.50
2019-05-07T14:38:54.249Z,98953.20
2019-05-07T14:41:25.794Z,98946.00
2019-05-07T14:44:00.398Z,98949.48
2019-05-07T14:46:43.508Z,98950.75
2019-05-07T14:48:59.262Z,98941.98
2019-05-07T14:51:27.845Z,98935.39
2019-05-07T14:53:56.273Z,98932.44
2019-05-07T14:56:24.910Z,98929.28
2019-05-07T14:58:53.374Z,98924.02
2019-05-07T15:01:22.391Z,98921.17
2019-05-07T15:03:51.669Z,98915.64
2019-05-07T15:06:21.890Z,98913.43
2019-05-07T15:08:52.194Z,98910.91
2019-05-07T15:11:20.906Z,98905.91
2019-05-07T15:13:49.530Z,98906.91
2019-05-07T15:16:18.209Z,98909.55
2019-05-07T15:18:53.656Z,98905.88
2019-05-07T15:21:22.527Z,98905.80
2019-05-07T15:23:52.961Z,98894.77
2019-05-07T15:26:22.046Z,98895.81
2019-05-07T15:28:52.355Z,98897.13
2019-05-07T15:31:22.472Z,98890.56
2019-05-07T15:33:52.277Z,98887.19
2019-05-07T15:36:20.773Z,98892.11
2019-05-07T15:38:49.204Z,98880.83
2019-05-07T15:41:17.964Z,98885.57
2019-05-07T15:43:46.502Z,98886.84
2019-05-07T15:46:14.986Z,98884.66
2019-05-07T15:48:43.424Z,98887.69
2019-05-07T15:51:12.027Z,98883.11
2019-05-07T15:53:42.782Z,98879.22
2019-05-07T15:56:12.464Z,98875.01
2019-05-07T15:58:42.578Z,98869.53
2019-05-07T16:01:12.892Z,98869.80
2019-05-07T16:03:45.496Z,98863.95
2019-05-07T16:06:13.927Z,98858.00
2019-05-07T16:08:43.973Z,98861.00
2019-05-07T16:11:12.642Z,98852.63
2019-05-07T16:13:42.691Z,98844.13
2019-05-07T16:16:11.269Z,98849.36
2019-05-07T16:18:57.632Z,98847.80
2019-05-07T16:21:26.041Z,98843.44
2019-05-07T16:23:54.854Z,98839.75
2019-05-07T16:26:23.374Z,98847.52
2019-05-07T16:28:53.317Z,98840.59
2019-05-07T16:31:24.436Z,98841.15
2019-05-07T16:33:52.220Z,98835.26
2019-05-07T16:36:22.004Z,98841.34
2019-05-07T16:38:52.664Z,98835.45
2019-05-07T16:41:22.362Z,98834.58
2019-05-07T16:43:52.455Z,98830.75
2019-05-07T16:46:22.387Z,98830.55
2019-05-07T16:48:50.925Z,98826.55
2019-05-07T16:51:19.415Z,98824.01
2019-05-07T16:53:47.866Z,98827.89
2019-05-07T16:56:16.312Z,98823.97
2019-05-07T16:58:49.406Z,98828.11
2019-05-07T17:01:17.903Z,98828.70
2019-05-07T17:03:52.098Z,98825.27
2019-05-07T17:06:24.760Z,98830.16
2019-05-07T17:08:52.381Z,98823.22
2019-05-07T17:11:22.648Z,98813.19
2019-05-07T17:13:51.886Z,98806.50
2019-05-07T17:16:20.415Z,98820.00
2019-05-07T17:18:49.083Z,98822.09
2019-05-07T17:21:17.680Z,98819.81
2019-05-07T17:23:46.263Z,98818.80
2019-05-07T17:26:15.065Z,98816.55
2019-05-07T17:28:43.608Z,98823.60
2019-05-07T17:31:12.484Z,98816.91
2019-05-07T17:33:42.429Z,98811.79
2019-05-07T17:36:12.107Z,98812.48
2019-05-07T17:38:42.702Z,98812.66
2019-05-07T17:41:18.278Z,98811.28
2019-05-07T17:43:41.164Z,98807.11
2019-05-07T17:46:09.583Z,98801.95
2019-05-07T17:48:38.030Z,98802.23
2019-05-07T17:51:08.125Z,98800.66
2019-05-07T17:53:36.912Z,98806.02
2019-05-07T17:56:05.837Z,98798.98
2019-05-07T17:58:34.516Z,98797.45
2019-05-07T18:01:03.871Z,98794.74
2019-05-07T18:03:36.921Z,98793.80
2019-05-07T18:06:06.348Z,98793.80
2019-05-07T18:08:35.080Z,98797.10
2019-05-07T18:11:17.426Z,98795.73
2019-05-07T18:13:34.006Z,98794.28
2019-05-07T18:16:04.086Z,98792.48
2019-05-07T18:18:32.968Z,98796.22
2019-05-07T18:21:02.313Z,98788.21
2019-05-07T18:23:32.175Z,98783.88
2019-05-07T18:26:00.811Z,98785.45
2019-05-07T18:28:29.672Z,98776.20
2019-05-07T18:30:58.971Z,98784.86
2019-05-07T18:33:29.054Z,98779.69
2019-05-07T18:35:57.582Z,98780.45
2019-05-07T18:38:27.453Z,98784.19
2019-05-07T18:40:57.225Z,98776.98
2019-05-07T18:43:25.702Z,98777.97
2019-05-07T18:45:54.153Z,98778.23
2019-05-07T18:48:22.575Z,98776.38
2019-05-07T18:50:52.257Z,98775.08
2019-05-07T18:53:22.729Z,98774.22
2019-05-07T18:55:51.713Z,98771.73
2019-05-07T18:58:22.263Z,98769.84
2019-05-07T19:00:55.190Z,98763.84
2019-05-07T19:03:25.365Z,98762.17
2019-05-07T19:05:54.388Z,98762.27
2019-05-07T19:08:23.164Z,98761.41
2019-05-07T19:10:52.302Z,98760.38
2019-05-07T19:13:22.206Z,98753.72
2019-05-07T19:15:52.997Z,98763.36
2019-05-07T19:18:22.788Z,98764.61
2019-05-07T19:20:52.993Z,98764.61
2019-05-07T19:23:22.311Z,98767.41
2019-05-07T19:25:52.250Z,98772.19
2019-05-07T19:28:22.436Z,98770.88
2019-05-07T19:30:52.757Z,98769.92
2019-05-07T19:33:26.198Z,98771.75
2019-05-07T19:35:52.852Z,98767.57
2019-05-07T19:38:21.334Z,98767.67
2019-05-07T19:40:49.783Z,98764.73
2019-05-07T19:43:18.276Z,98769.58
2019-05-07T19:45:46.685Z,98768.58
2019-05-07T19:48:15.248Z,98767.81
2019-05-07T19:50:43.712Z,98772.08
2019-05-07T19:53:12.566Z,98772.03
2019-05-07T19:55:45.369Z,98766.60
2019-05-07T19:58:12.851Z,98763.61
2019-05-07T20:00:42.099Z,98760.69
2019-05-07T20:03:13.146Z,98765.02
2019-05-07T20:05:41.998Z,98759.64
2019-05-07T20:08:12.085Z,98758.59
2019-05-07T20:10:42.329Z,98755.56
2019-05-07T20:13:12.440Z,98755.36
2019-05-07T20:15:42.881Z,98754.88
2019-05-07T20:18:12.437Z,98754.35
2019-05-07T20:20:42.419Z,98756.56
2019-05-07T20:23:12.042Z,98753.77
2019-05-07T20:25:42.012Z,98742.10
2019-05-07T20:28:12.728Z,98748.77
2019-05-07T20:30:41.783Z,98748.78
2019-05-07T20:33:10.803Z,98747.27
2019-05-07T20:35:41.317Z,98744.98
2019-05-07T20:38:09.670Z,98749.95
2019-05-07T20:40:42.467Z,98743.47
2019-05-07T20:43:12.667Z,98730.95
2019-05-07T20:45:42.590Z,98720.72
2019-05-07T20:48:11.271Z,98721.80
2019-05-07T20:50:39.772Z,98715.23
2019-05-07T20:53:08.179Z,98712.67
2019-05-07T20:55:54.266Z,98711.23
2019-05-07T20:58:22.750Z,98709.91
2019-05-07T21:00:52.610Z,98700.36
2019-05-07T21:03:23.709Z,98696.75
2019-05-07T21:05:53.439Z,98695.95
2019-05-07T21:08:22.700Z,98687.66
2019-05-07T21:10:53.493Z,98689.94
2019-05-07T21:13:30.133Z,98690.28
2019-05-07T21:15:52.762Z,98683.08
2019-05-07T21:18:23.249Z,98675.74
2019-05-07T21:20:52.969Z,98675.59
2019-05-07T21:23:23.101Z,98664.00
2019-05-07T21:25:52.859Z,98663.84
2019-05-07T21:28:21.643Z,98659.95
2019-05-07T21:30:52.200Z,98660.20
2019-05-07T21:33:22.575Z,98663.91
2019-05-07T21:35:52.274Z,98661.40
2019-05-07T21:38:22.372Z,98654.26
2019-05-07T21:40:50.700Z,98662.57
2019-05-07T21:43:19.139Z,98660.37
2019-05-07T21:45:47.543Z,98659.23
2019-05-07T21:48:15.944Z,98658.84
2019-05-07T21:50:44.381Z,98655.20
2019-05-07T21:53:29.201Z,98646.38
2019-05-07T21:56:05.416Z,98645.29
2019-05-07T21:58:34.891Z,98636.35
2019-05-07T22:01:17.172Z,98633.97
2019-05-07T22:03:47.240Z,98634.39
2019-05-07T22:06:15.708Z,98633.52
2019-05-07T22:08:44.106Z,98632.83
2019-05-07T22:11:12.620Z,98628.20
2019-05-07T22:13:43.304Z,98627.73
2019-05-07T22:16:13.025Z,98622.95
2019-05-07T22:18:42.711Z,98621.19
2019-05-07T22:21:12.467Z,98627.92
2019-05-07T22:23:42.768Z,98619.22
2019-05-07T22:26:20.032Z,98617.14
2019-05-07T22:28:42.044Z,98609.94
2019-05-07T22:31:17.831Z,98615.61
2019-05-07T22:33:47.969Z,98605.84
2019-05-07T22:36:16.410Z,98597.01
2019-05-07T22:38:44.866Z,98595.86
2019-05-07T22:41:13.282Z,98593.31
2019-05-07T22:43:42.477Z,98596.63
2019-05-07T22:46:12.456Z,98586.33
2019-05-07T22:48:41.920Z,98580.95
2019-05-07T22:51:12.197Z,98580.95
2019-05-07T22:53:40.640Z,98579.16
2019-05-07T22:56:09.047Z,98572.48
2019-05-07T22:58:55.396Z,98574.09
2019-05-07T23:01:23.808Z,98568.01
2019-05-07T23:03:54.098Z,98565.70
2019-05-07T23:06:23.182Z,98559.11
2019-05-07T23:08:52.993Z,98559.83
2019-05-07T23:11:22.871Z,98547.56
2019-05-07T23:13:54.429Z,98545.05
2019-05-07T23:16:23.100Z,98534.71
2019-05-07T23:18:51.748Z,98536.40
2019-05-07T23:21:24.287Z,98536.44
2019-05-07T23:23:52.626Z,98528.02
2019-05-07T23:26:23.150Z,98532.25
2019-05-07T23:28:51.907Z,98526.21
2019-05-07T23:31:22.676Z,98530.28
2019-05-07T23:33:52.277Z,98521.36
2019-05-07T23:36:22.464Z,98515.25
2019-05-07T23:38:52.120Z,98512.23
2019-05-07T23:41:22.403Z,98506.75
2019-05-07T23:44:08.681Z,98507.80
2019-05-07T23:46:37.090Z,98501.81
2019-05-07T23:49:05.533Z,98499.34
2019-05-07T23:51:33.949Z,98496.17
2019-05-07T23:54:02.914Z,98490.89
2019-05-07T23:56:32.894Z,98486.11
2019-05-07T23:59:01.479Z,98489.36
